Terminal Aerodrome Forecast
Issued by NWS

Home | Current Version | Previous Version | Text Only | Print | Product List | Glossary On
Versions: 1 2 3 4 5 6 7 8 9 10 11 12 13 14 15 16 17 18 19 20 21 22 23 24 25 26
000
FTUS46 KSEW 010600 AAA
TAFHQM
TAF AMD
KHQM 010626Z 0106/0206 25008KT P6SM OVC008
     FM011800 22005KT P6SM BKN015
     FM012000 25007KT P6SM BKN035
     FM020400 28007KT P6SM OVC030=

USA.gov is the U.S. government's official web portal to all federal, state and local government web resources and services.